sensor_id;sensor_type;location;lat;lon;timestamp;temperature;humidity
21090;DHT22;10703;51.020;6.128;2023-07-31T00:01:20;16.60;99.90
21090;DHT22;10703;51.020;6.128;2023-07-31T00:03:47;16.60;99.90
21090;DHT22;10703;51.020;6.128;2023-07-31T00:06:13;16.70;99.90
21090;DHT22;10703;51.020;6.128;2023-07-31T00:08:40;16.70;99.90
21090;DHT22;10703;51.020;6.128;2023-07-31T00:11:07;16.60;99.90
21090;DHT22;10703;51.020;6.128;2023-07-31T00:13:33;16.60;99.90
21090;DHT22;10703;51.020;6.128;2023-07-31T00:16:00;16.80;99.90
21090;DHT22;10703;51.020;6.128;2023-07-31T00:18:27;16.70;99.90
21090;DHT22;10703;51.020;6.128;2023-07-31T00:20:53;16.60;99.90
21090;DHT22;10703;51.020;6.128;2023-07-31T00:23:20;16.70;99.90
21090;DHT22;10703;51.020;6.128;2023-07-31T00:25:47;16.70;99.90
21090;DHT22;10703;51.020;6.128;2023-07-31T00:28:13;16.70;99.90
21090;DHT22;10703;51.020;6.128;2023-07-31T00:30:40;16.70;99.90
21090;DHT22;10703;51.020;6.128;2023-07-31T00:33:07;16.70;99.90
21090;DHT22;10703;51.020;6.128;2023-07-31T00:35:33;16.70;99.90
21090;DHT22;10703;51.020;6.128;2023-07-31T00:38:00;16.70;99.90
21090;DHT22;10703;51.020;6.128;2023-07-31T00:40:26;16.60;99.90
21090;DHT22;10703;51.020;6.128;2023-07-31T00:42:53;16.70;99.90
21090;DHT22;10703;51.020;6.128;2023-07-31T00:45:20;16.70;99.90
21090;DHT22;10703;51.020;6.128;2023-07-31T00:47:49;16.70;99.90
21090;DHT22;10703;51.020;6.128;2023-07-31T00:50:16;16.70;99.90
21090;DHT22;10703;51.020;6.128;2023-07-31T00:52:43;16.70;99.90
21090;DHT22;10703;51.020;6.128;2023-07-31T00:55:09;16.60;99.90
21090;DHT22;10703;51.020;6.128;2023-07-31T00:57:36;16.50;99.90
21090;DHT22;10703;51.020;6.128;2023-07-31T01:00:04;16.60;99.90
21090;DHT22;10703;51.020;6.128;2023-07-31T01:02:31;16.60;99.90
21090;DHT22;10703;51.020;6.128;2023-07-31T01:04:58;16.50;99.90
21090;DHT22;10703;51.020;6.128;2023-07-31T01:07:31;16.50;99.90
21090;DHT22;10703;51.020;6.128;2023-07-31T01:12:38;16.50;99.90
21090;DHT22;10703;51.020;6.128;2023-07-31T01:15:07;16.50;99.90
21090;DHT22;10703;51.020;6.128;2023-07-31T01:17:43;16.60;99.90
21090;DHT22;10703;51.020;6.128;2023-07-31T01:20:22;16.60;99.90
21090;DHT22;10703;51.020;6.128;2023-07-31T01:26:08;16.60;99.90
21090;DHT22;10703;51.020;6.128;2023-07-31T01:28:50;16.70;99.90
21090;DHT22;10703;51.020;6.128;2023-07-31T01:31:22;16.70;99.90
21090;DHT22;10703;51.020;6.128;2023-07-31T01:33:52;16.70;99.90
21090;DHT22;10703;51.020;6.128;2023-07-31T01:36:20;16.70;99.90
21090;DHT22;10703;51.020;6.128;2023-07-31T01:38:47;16.90;99.90
21090;DHT22;10703;51.020;6.128;2023-07-31T01:41:17;16.80;99.90
21090;DHT22;10703;51.020;6.128;2023-07-31T01:43:45;16.90;99.90
21090;DHT22;10703;51.020;6.128;2023-07-31T01:46:11;17.10;99.90
21090;DHT22;10703;51.020;6.128;2023-07-31T01:48:38;16.80;99.90
21090;DHT22;10703;51.020;6.128;2023-07-31T01:51:05;16.90;99.90
21090;DHT22;10703;51.020;6.128;2023-07-31T01:53:32;16.90;99.90
21090;DHT22;10703;51.020;6.128;2023-07-31T01:55:58;17.00;99.90
21090;DHT22;10703;51.020;6.128;2023-07-31T01:58:25;17.00;99.90
21090;DHT22;10703;51.020;6.128;2023-07-31T02:00:52;17.00;99.90
21090;DHT22;10703;51.020;6.128;2023-07-31T02:03:19;17.00;99.90
21090;DHT22;10703;51.020;6.128;2023-07-31T02:05:49;16.90;99.90
21090;DHT22;10703;51.020;6.128;2023-07-31T02:08:16;16.90;99.90
21090;DHT22;10703;51.020;6.128;2023-07-31T02:10:43;16.90;99.90
21090;DHT22;10703;51.020;6.128;2023-07-31T02:13:10;17.00;99.90
21090;DHT22;10703;51.020;6.128;2023-07-31T02:15:37;17.10;99.90
21090;DHT22;10703;51.020;6.128;2023-07-31T02:18:04;17.00;99.90
21090;DHT22;10703;51.020;6.128;2023-07-31T02:20:34;17.00;99.90
21090;DHT22;10703;51.020;6.128;2023-07-31T02:23:01;17.00;99.90
21090;DHT22;10703;51.020;6.128;2023-07-31T02:25:28;17.10;99.90
21090;DHT22;10703;51.020;6.128;2023-07-31T02:27:55;17.20;99.90
21090;DHT22;10703;51.020;6.128;2023-07-31T02:30:21;17.20;99.90
21090;DHT22;10703;51.020;6.128;2023-07-31T02:32:48;17.10;99.90
21090;DHT22;10703;51.020;6.128;2023-07-31T02:35:15;17.20;99.90
21090;DHT22;10703;51.020;6.128;2023-07-31T02:37:42;17.10;99.90
21090;DHT22;10703;51.020;6.128;2023-07-31T02:40:09;17.20;99.90
21090;DHT22;10703;51.020;6.128;2023-07-31T02:42:36;17.20;99.90
21090;DHT22;10703;51.020;6.128;2023-07-31T02:45:03;17.20;99.90
21090;DHT22;10703;51.020;6.128;2023-07-31T02:47:30;17.30;99.90
21090;DHT22;10703;51.020;6.128;2023-07-31T02:49:56;17.30;99.90
21090;DHT22;10703;51.020;6.128;2023-07-31T02:52:24;17.30;99.90
21090;DHT22;10703;51.020;6.128;2023-07-31T02:54:50;17.30;99.90
21090;DHT22;10703;51.020;6.128;2023-07-31T02:57:17;17.20;99.90
21090;DHT22;10703;51.020;6.128;2023-07-31T02:59:43;17.10;99.90
21090;DHT22;10703;51.020;6.128;2023-07-31T03:02:10;17.00;99.90
21090;DHT22;10703;51.020;6.128;2023-07-31T03:04:38;16.90;99.90
21090;DHT22;10703;51.020;6.128;2023-07-31T03:07:05;16.90;99.90
21090;DHT22;10703;51.020;6.128;2023-07-31T03:09:31;16.90;99.90
21090;DHT22;10703;51.020;6.128;2023-07-31T03:11:58;16.90;99.90
21090;DHT22;10703;51.020;6.128;2023-07-31T03:14:25;16.90;99.90
21090;DHT22;10703;51.020;6.128;2023-07-31T03:16:53;17.00;99.90
21090;DHT22;10703;51.020;6.128;2023-07-31T03:19:20;17.00;99.90
21090;DHT22;10703;51.020;6.128;2023-07-31T03:21:46;17.10;99.90
21090;DHT22;10703;51.020;6.128;2023-07-31T03:24:13;17.10;99.90
21090;DHT22;10703;51.020;6.128;2023-07-31T03:26:40;17.10;99.90
21090;DHT22;10703;51.020;6.128;2023-07-31T03:29:08;17.10;99.90
21090;DHT22;10703;51.020;6.128;2023-07-31T03:31:35;17.10;99.90
21090;DHT22;10703;51.020;6.128;2023-07-31T03:34:02;17.10;99.90
21090;DHT22;10703;51.020;6.128;2023-07-31T03:36:28;17.10;99.90
21090;DHT22;10703;51.020;6.128;2023-07-31T03:38:55;17.20;99.90
21090;DHT22;10703;51.020;6.128;2023-07-31T03:41:22;17.20;99.90
21090;DHT22;10703;51.020;6.128;2023-07-31T03:43:50;17.20;99.90
21090;DHT22;10703;51.020;6.128;2023-07-31T03:46:18;17.20;99.90
21090;DHT22;10703;51.020;6.128;2023-07-31T03:48:45;17.10;99.90
21090;DHT22;10703;51.020;6.128;2023-07-31T03:51:11;17.20;99.90
21090;DHT22;10703;51.020;6.128;2023-07-31T03:53:38;17.30;99.90
21090;DHT22;10703;51.020;6.128;2023-07-31T03:56:04;17.30;99.90
21090;DHT22;10703;51.020;6.128;2023-07-31T03:58:31;17.30;99.90
21090;DHT22;10703;51.020;6.128;2023-07-31T04:00:58;17.30;99.90
21090;DHT22;10703;51.020;6.128;2023-07-31T04:03:25;17.40;99.90
21090;DHT22;10703;51.020;6.128;2023-07-31T04:05:54;17.50;99.90
21090;DHT22;10703;51.020;6.128;2023-07-31T04:08:22;17.40;99.90
21090;DHT22;10703;51.020;6.128;2023-07-31T04:10:49;17.50;99.90
21090;DHT22;10703;51.020;6.128;2023-07-31T04:13:16;17.50;99.90
21090;DHT22;10703;51.020;6.128;2023-07-31T04:15:48;17.60;99.90
21090;DHT22;10703;51.020;6.128;2023-07-31T04:18:15;17.60;99.90
21090;DHT22;10703;51.020;6.128;2023-07-31T04:20:42;17.60;99.90
21090;DHT22;10703;51.020;6.128;2023-07-31T04:23:08;17.60;99.90
21090;DHT22;10703;51.020;6.128;2023-07-31T04:25:35;17.50;99.90
21090;DHT22;10703;51.020;6.128;2023-07-31T04:28:02;17.60;99.90
21090;DHT22;10703;51.020;6.128;2023-07-31T04:30:28;17.70;99.90
21090;DHT22;10703;51.020;6.128;2023-07-31T04:32:55;17.70;99.90
21090;DHT22;10703;51.020;6.128;2023-07-31T04:35:22;17.60;99.90
21090;DHT22;10703;51.020;6.128;2023-07-31T04:37:48;17.70;99.90
21090;DHT22;10703;51.020;6.128;2023-07-31T04:40:16;17.70;99.90
21090;DHT22;10703;51.020;6.128;2023-07-31T04:42:42;17.70;99.90
21090;DHT22;10703;51.020;6.128;2023-07-31T04:45:09;17.80;99.90
21090;DHT22;10703;51.020;6.128;2023-07-31T04:47:36;17.80;99.90
21090;DHT22;10703;51.020;6.128;2023-07-31T04:50:02;18.00;99.90
21090;DHT22;10703;51.020;6.128;2023-07-31T04:52:29;17.90;99.90
21090;DHT22;10703;51.020;6.128;2023-07-31T04:54:56;17.90;99.90
21090;DHT22;10703;51.020;6.128;2023-07-31T04:57:23;17.80;99.90
21090;DHT22;10703;51.020;6.128;2023-07-31T04:59:49;17.90;99.90
21090;DHT22;10703;51.020;6.128;2023-07-31T05:02:17;17.80;99.90
21090;DHT22;10703;51.020;6.128;2023-07-31T05:04:43;17.90;99.90
21090;DHT22;10703;51.020;6.128;2023-07-31T05:07:10;17.90;99.90
21090;DHT22;10703;51.020;6.128;2023-07-31T05:09:37;18.10;99.90
21090;DHT22;10703;51.020;6.128;2023-07-31T05:12:06;17.80;99.90
21090;DHT22;10703;51.020;6.128;2023-07-31T05:14:32;17.80;99.90
21090;DHT22;10703;51.020;6.128;2023-07-31T05:16:59;17.80;99.90
21090;DHT22;10703;51.020;6.128;2023-07-31T05:19:26;17.90;99.90
21090;DHT22;10703;51.020;6.128;2023-07-31T05:21:52;17.80;99.90
21090;DHT22;10703;51.020;6.128;2023-07-31T05:24:19;17.80;99.90
21090;DHT22;10703;51.020;6.128;2023-07-31T05:26:45;17.70;99.90
21090;DHT22;10703;51.020;6.128;2023-07-31T05:29:12;17.50;99.90
21090;DHT22;10703;51.020;6.128;2023-07-31T05:31:39;17.40;99.90
21090;DHT22;10703;51.020;6.128;2023-07-31T05:34:05;17.20;99.90
21090;DHT22;10703;51.020;6.128;2023-07-31T05:36:32;17.10;99.90
21090;DHT22;10703;51.020;6.128;2023-07-31T05:38:58;17.10;99.90
21090;DHT22;10703;51.020;6.128;2023-07-31T05:41:25;17.00;99.90
21090;DHT22;10703;51.020;6.128;2023-07-31T05:43:52;17.10;99.90
21090;DHT22;10703;51.020;6.128;2023-07-31T05:46:18;17.00;99.90
21090;DHT22;10703;51.020;6.128;2023-07-31T05:48:45;17.00;99.90
21090;DHT22;10703;51.020;6.128;2023-07-31T05:51:12;17.00;99.90
21090;DHT22;10703;51.020;6.128;2023-07-31T05:53:38;16.90;99.90
21090;DHT22;10703;51.020;6.128;2023-07-31T05:56:07;16.90;99.90
21090;DHT22;10703;51.020;6.128;2023-07-31T05:58:34;16.90;99.90
21090;DHT22;10703;51.020;6.128;2023-07-31T06:01:00;16.90;99.90
21090;DHT22;10703;51.020;6.128;2023-07-31T06:03:27;16.90;99.90
21090;DHT22;10703;51.020;6.128;2023-07-31T06:05:54;16.90;99.90
21090;DHT22;10703;51.020;6.128;2023-07-31T06:08:21;16.90;99.90
21090;DHT22;10703;51.020;6.128;2023-07-31T06:10:47;17.00;99.90
21090;DHT22;10703;51.020;6.128;2023-07-31T06:13:14;17.10;99.90
21090;DHT22;10703;51.020;6.128;2023-07-31T06:15:41;17.20;99.90
21090;DHT22;10703;51.020;6.128;2023-07-31T06:18:07;17.30;99.90
21090;DHT22;10703;51.020;6.128;2023-07-31T06:20:34;17.50;99.90
21090;DHT22;10703;51.020;6.128;2023-07-31T06:23:01;17.50;99.90
21090;DHT22;10703;51.020;6.128;2023-07-31T06:25:28;17.60;99.90
21090;DHT22;10703;51.020;6.128;2023-07-31T06:27:55;17.70;99.90
21090;DHT22;10703;51.020;6.128;2023-07-31T06:30:22;18.00;99.90
21090;DHT22;10703;51.020;6.128;2023-07-31T06:32:48;17.60;99.90
21090;DHT22;10703;51.020;6.128;2023-07-31T06:35:15;17.60;99.90
21090;DHT22;10703;51.020;6.128;2023-07-31T06:37:41;17.60;99.90
21090;DHT22;10703;51.020;6.128;2023-07-31T06:40:10;17.60;99.90
21090;DHT22;10703;51.020;6.128;2023-07-31T06:42:37;17.60;99.90
21090;DHT22;10703;51.020;6.128;2023-07-31T06:45:04;17.60;99.90
21090;DHT22;10703;51.020;6.128;2023-07-31T06:47:31;17.50;99.90
21090;DHT22;10703;51.020;6.128;2023-07-31T06:49:58;17.50;99.90
21090;DHT22;10703;51.020;6.128;2023-07-31T06:52:25;17.50;99.90
21090;DHT22;10703;51.020;6.128;2023-07-31T06:55:02;17.50;99.90
21090;DHT22;10703;51.020;6.128;2023-07-31T06:57:30;17.40;99.90
21090;DHT22;10703;51.020;6.128;2023-07-31T06:59:56;17.30;99.90
21090;DHT22;10703;51.020;6.128;2023-07-31T07:02:23;17.20;99.90
21090;DHT22;10703;51.020;6.128;2023-07-31T07:04:50;17.20;99.90
21090;DHT22;10703;51.020;6.128;2023-07-31T07:07:17;17.10;99.90
21090;DHT22;10703;51.020;6.128;2023-07-31T07:09:43;16.90;99.90
21090;DHT22;10703;51.020;6.128;2023-07-31T07:12:10;16.80;99.90
21090;DHT22;10703;51.020;6.128;2023-07-31T07:14:37;16.70;99.90
21090;DHT22;10703;51.020;6.128;2023-07-31T07:17:03;16.70;99.90
21090;DHT22;10703;51.020;6.128;2023-07-31T07:19:30;16.70;99.90
21090;DHT22;10703;51.020;6.128;2023-07-31T07:21:57;16.70;99.90
21090;DHT22;10703;51.020;6.128;2023-07-31T07:24:23;16.60;99.90
21090;DHT22;10703;51.020;6.128;2023-07-31T07:26:50;16.70;99.90
21090;DHT22;10703;51.020;6.128;2023-07-31T07:29:17;16.80;99.90
21090;DHT22;10703;51.020;6.128;2023-07-31T07:31:43;16.80;99.90
21090;DHT22;10703;51.020;6.128;2023-07-31T07:34:10;16.90;99.90
21090;DHT22;10703;51.020;6.128;2023-07-31T07:36:36;16.80;99.90
21090;DHT22;10703;51.020;6.128;2023-07-31T07:39:04;16.70;99.90
21090;DHT22;10703;51.020;6.128;2023-07-31T07:41:31;16.70;99.90
21090;DHT22;10703;51.020;6.128;2023-07-31T07:43:58;16.70;99.90
21090;DHT22;10703;51.020;6.128;2023-07-31T07:46:24;16.70;99.90
21090;DHT22;10703;51.020;6.128;2023-07-31T07:48:51;16.60;99.90
21090;DHT22;10703;51.020;6.128;2023-07-31T07:51:18;16.70;99.90
21090;DHT22;10703;51.020;6.128;2023-07-31T07:53:44;16.70;99.90
21090;DHT22;10703;51.020;6.128;2023-07-31T07:56:11;16.70;99.90
21090;DHT22;10703;51.020;6.128;2023-07-31T07:58:38;16.60;99.90
21090;DHT22;10703;51.020;6.128;2023-07-31T08:01:04;16.70;99.90
21090;DHT22;10703;51.020;6.128;2023-07-31T08:03:31;16.90;99.90
21090;DHT22;10703;51.020;6.128;2023-07-31T08:05:59;17.20;99.90
21090;DHT22;10703;51.020;6.128;2023-07-31T08:08:27;17.10;99.90
21090;DHT22;10703;51.020;6.128;2023-07-31T08:10:54;17.30;99.90
21090;DHT22;10703;51.020;6.128;2023-07-31T08:13:21;17.50;99.90
21090;DHT22;10703;51.020;6.128;2023-07-31T08:15:47;17.50;99.90
21090;DHT22;10703;51.020;6.128;2023-07-31T08:18:14;17.70;99.90
21090;DHT22;10703;51.020;6.128;2023-07-31T08:20:42;17.60;99.90
21090;DHT22;10703;51.020;6.128;2023-07-31T08:23:08;17.50;99.90
21090;DHT22;10703;51.020;6.128;2023-07-31T08:25:36;17.60;99.90
21090;DHT22;10703;51.020;6.128;2023-07-31T08:28:04;17.50;99.90
21090;DHT22;10703;51.020;6.128;2023-07-31T08:30:31;17.30;99.90
21090;DHT22;10703;51.020;6.128;2023-07-31T08:33:00;17.20;99.90
21090;DHT22;10703;51.020;6.128;2023-07-31T08:35:27;17.10;99.90
21090;DHT22;10703;51.020;6.128;2023-07-31T08:37:56;17.00;99.90
21090;DHT22;10703;51.020;6.128;2023-07-31T08:40:23;17.10;99.90
21090;DHT22;10703;51.020;6.128;2023-07-31T08:42:54;17.10;99.90
21090;DHT22;10703;51.020;6.128;2023-07-31T08:45:23;17.30;99.90
21090;DHT22;10703;51.020;6.128;2023-07-31T08:47:51;17.40;99.90
21090;DHT22;10703;51.020;6.128;2023-07-31T08:50:19;17.30;99.90
21090;DHT22;10703;51.020;6.128;2023-07-31T08:52:48;17.40;99.90
21090;DHT22;10703;51.020;6.128;2023-07-31T08:55:15;17.50;99.90
21090;DHT22;10703;51.020;6.128;2023-07-31T08:57:43;17.60;99.90
21090;DHT22;10703;51.020;6.128;2023-07-31T09:00:11;17.80;99.90
21090;DHT22;10703;51.020;6.128;2023-07-31T09:02:43;18.10;99.90
21090;DHT22;10703;51.020;6.128;2023-07-31T09:05:11;18.20;99.90
21090;DHT22;10703;51.020;6.128;2023-07-31T09:07:39;17.80;99.90
21090;DHT22;10703;51.020;6.128;2023-07-31T09:10:07;17.80;99.90
21090;DHT22;10703;51.020;6.128;2023-07-31T09:12:33;17.90;99.90
21090;DHT22;10703;51.020;6.128;2023-07-31T09:15:01;17.70;99.90
21090;DHT22;10703;51.020;6.128;2023-07-31T09:17:31;17.70;99.90
21090;DHT22;10703;51.020;6.128;2023-07-31T09:20:16;18.00;99.90
21090;DHT22;10703;51.020;6.128;2023-07-31T09:22:43;17.90;99.90
21090;DHT22;10703;51.020;6.128;2023-07-31T09:25:18;17.80;99.90
21090;DHT22;10703;51.020;6.128;2023-07-31T09:30:14;17.70;99.90
21090;DHT22;10703;51.020;6.128;2023-07-31T09:32:43;17.60;99.90
21090;DHT22;10703;51.020;6.128;2023-07-31T09:35:19;17.60;99.90
21090;DHT22;10703;51.020;6.128;2023-07-31T09:37:55;17.50;99.90
21090;DHT22;10703;51.020;6.128;2023-07-31T09:40:27;17.40;99.90
21090;DHT22;10703;51.020;6.128;2023-07-31T09:43:00;17.50;99.90
21090;DHT22;10703;51.020;6.128;2023-07-31T09:45:27;17.50;99.90
21090;DHT22;10703;51.020;6.128;2023-07-31T09:50:38;17.40;99.90
21090;DHT22;10703;51.020;6.128;2023-07-31T09:53:06;17.40;99.90
21090;DHT22;10703;51.020;6.128;2023-07-31T09:55:34;17.60;99.90
21090;DHT22;10703;51.020;6.128;2023-07-31T09:58:08;17.90;99.90
21090;DHT22;10703;51.020;6.128;2023-07-31T10:00:36;18.10;99.90
21090;DHT22;10703;51.020;6.128;2023-07-31T10:03:07;18.10;99.90
21090;DHT22;10703;51.020;6.128;2023-07-31T10:05:40;18.00;99.90
21090;DHT22;10703;51.020;6.128;2023-07-31T10:08:10;18.10;99.90
21090;DHT22;10703;51.020;6.128;2023-07-31T10:10:37;18.30;99.90
21090;DHT22;10703;51.020;6.128;2023-07-31T10:13:07;18.30;99.90
21090;DHT22;10703;51.020;6.128;2023-07-31T10:15:36;18.40;99.90
21090;DHT22;10703;51.020;6.128;2023-07-31T10:18:02;18.60;99.90
21090;DHT22;10703;51.020;6.128;2023-07-31T10:20:32;18.50;99.90
21090;DHT22;10703;51.020;6.128;2023-07-31T10:22:59;18.30;99.90
21090;DHT22;10703;51.020;6.128;2023-07-31T10:25:26;18.10;99.90
21090;DHT22;10703;51.020;6.128;2023-07-31T10:27:54;18.20;99.90
21090;DHT22;10703;51.020;6.128;2023-07-31T10:30:27;18.30;99.90
21090;DHT22;10703;51.020;6.128;2023-07-31T10:32:56;18.30;99.90
21090;DHT22;10703;51.020;6.128;2023-07-31T10:35:23;18.40;99.90
21090;DHT22;10703;51.020;6.128;2023-07-31T10:37:50;18.60;99.90
21090;DHT22;10703;51.020;6.128;2023-07-31T10:40:27;18.80;99.90
21090;DHT22;10703;51.020;6.128;2023-07-31T10:42:55;19.00;99.90
21090;DHT22;10703;51.020;6.128;2023-07-31T10:45:26;18.80;99.90
21090;DHT22;10703;51.020;6.128;2023-07-31T10:48:00;18.80;99.90
21090;DHT22;10703;51.020;6.128;2023-07-31T10:50:29;18.80;99.90
21090;DHT22;10703;51.020;6.128;2023-07-31T10:52:59;18.80;99.90
21090;DHT22;10703;51.020;6.128;2023-07-31T10:55:39;19.20;99.90
21090;DHT22;10703;51.020;6.128;2023-07-31T10:58:11;20.00;99.90
21090;DHT22;10703;51.020;6.128;2023-07-31T11:00:39;19.80;99.90
21090;DHT22;10703;51.020;6.128;2023-07-31T11:03:15;19.80;99.90
21090;DHT22;10703;51.020;6.128;2023-07-31T11:05:51;19.50;99.90
21090;DHT22;10703;51.020;6.128;2023-07-31T11:08:22;19.50;99.90
21090;DHT22;10703;51.020;6.128;2023-07-31T11:13:33;19.50;99.90
21090;DHT22;10703;51.020;6.128;2023-07-31T11:16:00;19.40;99.90
21090;DHT22;10703;51.020;6.128;2023-07-31T11:18:27;19.60;99.90
21090;DHT22;10703;51.020;6.128;2023-07-31T11:20:54;19.70;99.90
21090;DHT22;10703;51.020;6.128;2023-07-31T11:23:22;19.80;99.90
21090;DHT22;10703;51.020;6.128;2023-07-31T11:25:49;19.90;99.90
21090;DHT22;10703;51.020;6.128;2023-07-31T11:28:18;19.80;99.90
21090;DHT22;10703;51.020;6.128;2023-07-31T11:30:46;20.00;99.90
21090;DHT22;10703;51.020;6.128;2023-07-31T11:33:13;20.10;99.90
21090;DHT22;10703;51.020;6.128;2023-07-31T11:35:46;19.90;99.90
21090;DHT22;10703;51.020;6.128;2023-07-31T11:38:25;19.50;99.90
21090;DHT22;10703;51.020;6.128;2023-07-31T11:40:56;19.00;99.90
21090;DHT22;10703;51.020;6.128;2023-07-31T11:43:24;18.60;99.90
21090;DHT22;10703;51.020;6.128;2023-07-31T11:45:55;18.40;99.90
21090;DHT22;10703;51.020;6.128;2023-07-31T11:48:30;18.40;99.90
21090;DHT22;10703;51.020;6.128;2023-07-31T11:50:58;18.30;99.90
21090;DHT22;10703;51.020;6.128;2023-07-31T11:53:40;18.20;99.90
21090;DHT22;10703;51.020;6.128;2023-07-31T11:56:10;18.00;99.90
21090;DHT22;10703;51.020;6.128;2023-07-31T11:58:38;17.90;99.90
21090;DHT22;10703;51.020;6.128;2023-07-31T12:01:06;17.90;99.90
21090;DHT22;10703;51.020;6.128;2023-07-31T12:03:34;17.90;99.90
21090;DHT22;10703;51.020;6.128;2023-07-31T12:06:00;17.80;99.90
21090;DHT22;10703;51.020;6.128;2023-07-31T12:08:29;17.90;99.90
21090;DHT22;10703;51.020;6.128;2023-07-31T12:11:03;18.00;99.90
21090;DHT22;10703;51.020;6.128;2023-07-31T12:13:31;18.20;99.90
21090;DHT22;10703;51.020;6.128;2023-07-31T12:16:00;18.60;99.90
21090;DHT22;10703;51.020;6.128;2023-07-31T12:18:30;19.20;99.90
21090;DHT22;10703;51.020;6.128;2023-07-31T12:21:00;20.20;99.90
21090;DHT22;10703;51.020;6.128;2023-07-31T12:23:28;20.50;99.90
21090;DHT22;10703;51.020;6.128;2023-07-31T12:26:14;20.70;99.90
21090;DHT22;10703;51.020;6.128;2023-07-31T12:31:19;20.20;99.90
21090;DHT22;10703;51.020;6.128;2023-07-31T12:33:47;20.40;99.90
21090;DHT22;10703;51.020;6.128;2023-07-31T12:36:24;20.20;99.90
21090;DHT22;10703;51.020;6.128;2023-07-31T12:38:52;20.20;99.90
21090;DHT22;10703;51.020;6.128;2023-07-31T12:41:19;19.70;99.90
21090;DHT22;10703;51.020;6.128;2023-07-31T12:43:46;19.50;99.90
21090;DHT22;10703;51.020;6.128;2023-07-31T12:46:12;19.30;99.90
21090;DHT22;10703;51.020;6.128;2023-07-31T12:48:40;19.20;99.90
21090;DHT22;10703;51.020;6.128;2023-07-31T12:51:07;19.70;99.90
21090;DHT22;10703;51.020;6.128;2023-07-31T12:53:34;20.00;99.90
21090;DHT22;10703;51.020;6.128;2023-07-31T12:56:01;20.40;99.90
21090;DHT22;10703;51.020;6.128;2023-07-31T12:58:28;20.80;99.90
21090;DHT22;10703;51.020;6.128;2023-07-31T13:00:55;21.10;99.90
21090;DHT22;10703;51.020;6.128;2023-07-31T13:03:21;21.70;99.90
21090;DHT22;10703;51.020;6.128;2023-07-31T13:05:48;22.10;99.90
21090;DHT22;10703;51.020;6.128;2023-07-31T13:08:15;22.30;99.90
21090;DHT22;10703;51.020;6.128;2023-07-31T13:10:44;22.10;99.90
21090;DHT22;10703;51.020;6.128;2023-07-31T13:13:10;22.60;99.90
21090;DHT22;10703;51.020;6.128;2023-07-31T13:15:37;22.50;99.90
21090;DHT22;10703;51.020;6.128;2023-07-31T13:18:04;23.00;99.90
21090;DHT22;10703;51.020;6.128;2023-07-31T13:20:31;22.90;99.90
21090;DHT22;10703;51.020;6.128;2023-07-31T13:22:57;23.40;99.90
21090;DHT22;10703;51.020;6.128;2023-07-31T13:25:24;23.30;99.90
21090;DHT22;10703;51.020;6.128;2023-07-31T13:27:51;22.60;99.90
21090;DHT22;10703;51.020;6.128;2023-07-31T13:30:17;23.20;99.90
21090;DHT22;10703;51.020;6.128;2023-07-31T13:32:44;23.60;99.90
21090;DHT22;10703;51.020;6.128;2023-07-31T13:35:10;23.80;99.90
21090;DHT22;10703;51.020;6.128;2023-07-31T13:37:38;22.70;99.90
21090;DHT22;10703;51.020;6.128;2023-07-31T13:40:05;21.40;99.90
21090;DHT22;10703;51.020;6.128;2023-07-31T13:42:32;20.90;99.90
21090;DHT22;10703;51.020;6.128;2023-07-31T13:44:59;20.60;99.90
21090;DHT22;10703;51.020;6.128;2023-07-31T13:47:28;20.50;99.90
21090;DHT22;10703;51.020;6.128;2023-07-31T13:49:55;20.10;99.90
21090;DHT22;10703;51.020;6.128;2023-07-31T13:52:22;20.10;99.90
21090;DHT22;10703;51.020;6.128;2023-07-31T13:54:48;20.00;99.90
21090;DHT22;10703;51.020;6.128;2023-07-31T13:57:15;20.10;99.90
21090;DHT22;10703;51.020;6.128;2023-07-31T13:59:42;20.00;99.90
21090;DHT22;10703;51.020;6.128;2023-07-31T14:02:09;19.80;99.90
21090;DHT22;10703;51.020;6.128;2023-07-31T14:04:35;19.70;99.90
21090;DHT22;10703;51.020;6.128;2023-07-31T14:07:02;19.60;99.90
21090;DHT22;10703;51.020;6.128;2023-07-31T14:09:29;19.60;99.90
21090;DHT22;10703;51.020;6.128;2023-07-31T14:11:56;20.00;99.90
21090;DHT22;10703;51.020;6.128;2023-07-31T14:14:22;19.80;99.90
21090;DHT22;10703;51.020;6.128;2023-07-31T14:16:49;20.10;99.90
21090;DHT22;10703;51.020;6.128;2023-07-31T14:19:16;20.20;99.90
21090;DHT22;10703;51.020;6.128;2023-07-31T14:21:43;20.50;99.90
21090;DHT22;10703;51.020;6.128;2023-07-31T14:24:19;20.50;99.90
21090;DHT22;10703;51.020;6.128;2023-07-31T14:26:46;20.70;99.90
21090;DHT22;10703;51.020;6.128;2023-07-31T14:29:12;20.70;99.90
21090;DHT22;10703;51.020;6.128;2023-07-31T14:31:39;20.80;99.90
21090;DHT22;10703;51.020;6.128;2023-07-31T14:34:06;20.80;99.90
21090;DHT22;10703;51.020;6.128;2023-07-31T14:36:32;21.00;99.90
21090;DHT22;10703;51.020;6.128;2023-07-31T14:38:59;20.70;99.90
21090;DHT22;10703;51.020;6.128;2023-07-31T14:41:25;21.00;99.90
21090;DHT22;10703;51.020;6.128;2023-07-31T14:43:52;20.90;99.90
21090;DHT22;10703;51.020;6.128;2023-07-31T14:46:19;20.60;99.90
21090;DHT22;10703;51.020;6.128;2023-07-31T14:48:46;20.50;99.90
21090;DHT22;10703;51.020;6.128;2023-07-31T14:51:12;20.40;99.90
21090;DHT22;10703;51.020;6.128;2023-07-31T14:53:40;20.40;99.90
21090;DHT22;10703;51.020;6.128;2023-07-31T14:56:07;20.40;99.90
21090;DHT22;10703;51.020;6.128;2023-07-31T14:58:34;20.20;99.90
21090;DHT22;10703;51.020;6.128;2023-07-31T15:01:00;20.10;99.90
21090;DHT22;10703;51.020;6.128;2023-07-31T15:03:27;20.20;99.90
21090;DHT22;10703;51.020;6.128;2023-07-31T15:05:54;20.30;99.90
21090;DHT22;10703;51.020;6.128;2023-07-31T15:08:21;20.30;99.90
21090;DHT22;10703;51.020;6.128;2023-07-31T15:10:47;20.40;99.90
21090;DHT22;10703;51.020;6.128;2023-07-31T15:13:15;20.40;99.90
21090;DHT22;10703;51.020;6.128;2023-07-31T15:15:42;20.40;99.90
21090;DHT22;10703;51.020;6.128;2023-07-31T15:18:08;20.50;99.90
21090;DHT22;10703;51.020;6.128;2023-07-31T15:20:35;20.20;99.90
21090;DHT22;10703;51.020;6.128;2023-07-31T15:23:02;19.90;99.90
21090;DHT22;10703;51.020;6.128;2023-07-31T15:25:29;19.70;99.90
21090;DHT22;10703;51.020;6.128;2023-07-31T15:27:55;19.70;99.90
21090;DHT22;10703;51.020;6.128;2023-07-31T15:30:24;19.60;99.90
21090;DHT22;10703;51.020;6.128;2023-07-31T15:32:52;19.30;99.90
21090;DHT22;10703;51.020;6.128;2023-07-31T15:35:19;19.20;99.90
21090;DHT22;10703;51.020;6.128;2023-07-31T15:37:48;19.10;99.90
21090;DHT22;10703;51.020;6.128;2023-07-31T15:40:14;18.90;99.90
21090;DHT22;10703;51.020;6.128;2023-07-31T15:42:41;18.90;99.90
21090;DHT22;10703;51.020;6.128;2023-07-31T15:45:08;19.00;99.90
21090;DHT22;10703;51.020;6.128;2023-07-31T15:47:35;18.90;99.90
21090;DHT22;10703;51.020;6.128;2023-07-31T15:50:02;18.80;99.90